Time;durP1;ratioP1;P1;durP2;ratioP2;P2;SDS_P1;SDS_P2;PMS_P1;PMS_P2;Temp;Humidity;BMP_temperature;BMP_pressure;BME280_temperature;BME280_humidity;BME280_pressure;Samples;Min_cycle;Max_cycle;Signal;HPM_P1;HPM_P2
2021/01/14 00:00:37;;;;;;;18.80;11.28;;;;;;;0.31;61.70;99186.94;1733192;80;21169;-43
2021/01/14 00:03:09;;;;;;;17.65;12.65;;;;;;;0.34;61.71;99184.20;1735926;82;21114;-45
2021/01/14 00:05:37;;;;;;;16.42;11.43;;;;;;;0.35;61.82;99183.30;1735658;81;21119;-44
2021/01/14 00:08:05;;;;;;;16.45;11.80;;;;;;;0.36;61.88;99178.45;1726878;82;21154;-44
2021/01/14 00:10:33;;;;;;;15.70;11.60;;;;;;;0.38;61.96;99187.12;1728846;81;21146;-42
2021/01/14 00:13:01;;;;;;;14.75;11.18;;;;;;;0.40;61.97;99187.05;1732132;80;21178;-42
2021/01/14 00:15:30;;;;;;;15.53;11.20;;;;;;;0.42;61.96;99187.84;1675568;84;21146;-42
2021/01/14 00:17:58;;;;;;;15.80;11.90;;;;;;;0.41;61.86;99183.52;1736921;82;21139;-42
2021/01/14 00:20:26;;;;;;;15.40;11.33;;;;;;;0.37;61.87;99187.16;1735368;81;21162;-42
2021/01/14 00:22:53;;;;;;;16.48;10.82;;;;;;;0.36;61.95;99188.09;1734767;81;21154;-43
2021/01/14 00:25:21;;;;;;;14.23;10.55;;;;;;;0.35;62.04;99183.30;1733649;80;21161;-41
2021/01/14 00:27:50;;;;;;;15.28;10.82;;;;;;;0.34;61.99;99180.72;1732488;81;21103;-43
2021/01/14 00:30:30;;;;;;;15.63;11.90;;;;;;;0.30;62.09;99175.19;1726859;80;21159;-43
2021/01/14 00:33:00;;;;;;;16.35;11.25;;;;;;;0.29;62.19;99179.58;1731964;81;21192;-43
2021/01/14 00:35:27;;;;;;;15.28;11.28;;;;;;;0.30;62.28;99177.80;1730559;80;21701;-43
2021/01/14 00:37:55;;;;;;;16.00;11.45;;;;;;;0.34;62.19;99176.80;1728665;81;21111;-42
2021/01/14 00:40:30;;;;;;;14.53;10.68;;;;;;;0.33;62.04;99173.78;1732938;80;21983;-42
2021/01/14 00:43:04;;;;;;;15.18;10.72;;;;;;;0.30;62.05;99183.91;1732562;81;21159;-42
2021/01/14 00:45:32;;;;;;;16.55;11.03;;;;;;;0.31;62.09;99182.16;1729391;81;21430;-42
2021/01/14 00:48:02;;;;;;;16.30;11.20;;;;;;;0.36;62.16;99188.09;1732634;81;21154;-44
2021/01/14 00:50:30;;;;;;;16.50;11.40;;;;;;;0.41;62.28;99190.94;1729614;81;21457;-43
2021/01/14 00:52:57;;;;;;;14.83;10.72;;;;;;;0.47;62.27;99191.15;1732510;80;21166;-44
2021/01/14 00:55:25;;;;;;;17.95;13.83;;;;;;;0.53;62.18;99197.92;1735088;80;21142;-43
2021/01/14 00:57:53;;;;;;;17.20;12.63;;;;;;;0.58;62.15;99188.11;1732628;81;21649;-43
2021/01/14 01:00:22;;;;;;;18.12;12.15;;;;;;;0.64;62.06;99191.83;1691645;82;21163;-42
2021/01/14 01:02:51;;;;;;;16.85;12.75;;;;;;;0.69;62.00;99187.73;1733241;81;21150;-41
2021/01/14 01:05:20;;;;;;;18.90;13.18;;;;;;;0.72;62.03;99183.20;1733837;80;21578;-41
2021/01/14 01:07:50;;;;;;;19.73;14.83;;;;;;;0.77;61.88;99170.75;1730409;82;21158;-42
2021/01/14 01:10:18;;;;;;;18.55;13.85;;;;;;;0.81;61.76;99170.20;1730463;81;21114;-41
2021/01/14 01:12:52;;;;;;;20.85;14.28;;;;;;;0.83;61.67;99175.78;1736736;81;21162;-41
2021/01/14 01:15:20;;;;;;;20.82;14.43;;;;;;;0.86;61.62;99176.12;1729329;81;21127;-43
2021/01/14 01:17:48;;;;;;;19.50;14.35;;;;;;;0.88;61.57;99182.14;1735273;81;21165;-45
2021/01/14 01:20:15;;;;;;;20.65;14.68;;;;;;;0.89;61.51;99179.92;1729580;81;21872;-42
2021/01/14 01:22:43;;;;;;;17.52;12.98;;;;;;;0.91;61.50;99183.78;1734419;81;21933;-43
2021/01/14 01:25:11;;;;;;;17.45;13.80;;;;;;;0.91;61.42;99182.05;1731404;80;21177;-41
2021/01/14 01:27:40;;;;;;;17.67;12.85;;;;;;;0.91;61.25;99176.79;1732039;81;21483;-42
2021/01/14 01:30:09;;;;;;;17.82;13.38;;;;;;;0.89;61.18;99180.39;1732579;80;21191;-41
2021/01/14 01:32:37;;;;;;;20.05;13.08;;;;;;;0.86;61.18;99180.91;1731077;81;21154;-40
2021/01/14 01:35:06;;;;;;;17.77;12.50;;;;;;;0.83;61.24;99186.71;1735848;80;21142;-45
2021/01/14 01:37:33;;;;;;;15.30;11.10;;;;;;;0.80;61.21;99176.34;1735444;81;21146;-40
2021/01/14 01:40:01;;;;;;;19.02;13.13;;;;;;;0.78;61.25;99181.67;1727441;81;21152;-42
2021/01/14 01:42:29;;;;;;;16.87;12.45;;;;;;;0.75;61.24;99182.23;1737559;82;21145;-42
2021/01/14 01:45:00;;;;;;;17.60;12.00;;;;;;;0.72;61.32;99179.27;1735528;81;21146;-43
2021/01/14 01:47:32;;;;;;;16.70;11.50;;;;;;;0.71;61.41;99184.13;1731852;82;21165;-45
2021/01/14 01:49:56;;;;;;;19.17;13.28;;;;;;;0.70;61.51;99185.48;1731039;80;21131;-42
2021/01/14 01:52:23;;;;;;;18.77;12.68;;;;;;;0.71;61.73;99189.38;1731433;82;21630;-44
2021/01/14 01:54:51;;;;;;;17.42;12.53;;;;;;;0.73;61.88;99186.24;1729347;80;21606;-44
2021/01/14 01:57:19;;;;;;;18.45;13.20;;;;;;;0.76;62.10;99188.74;1699617;83;21567;-42
2021/01/14 01:59:46;;;;;;;20.48;14.03;;;;;;;0.77;62.19;99185.19;1666451;83;21175;-42
2021/01/14 02:02:24;;;;;;;19.75;14.18;;;;;;;0.79;62.23;99189.93;1672057;85;21162;-42
2021/01/14 02:04:51;;;;;;;31.95;22.65;;;;;;;0.84;62.30;99187.13;1663699;83;21187;-42
2021/01/14 02:07:56;;;;;;;22.80;16.65;;;;;;;0.88;62.32;99187.38;1730413;81;21578;-43
2021/01/14 02:10:36;;;;;;;19.17;13.45;;;;;;;0.89;62.29;99198.30;1724779;81;21115;-42
2021/01/14 02:13:44;;;;;;;19.65;13.35;;;;;;;0.91;62.37;99196.91;1732461;81;21118;-42
2021/01/14 02:16:13;;;;;;;16.70;12.60;;;;;;;0.90;62.42;99200.47;1733546;81;21130;-43
2021/01/14 02:18:41;;;;;;;18.95;11.85;;;;;;;0.94;62.29;99197.66;1675201;83;21154;-42
2021/01/14 02:21:12;;;;;;;18.60;13.72;;;;;;;0.96;62.18;99197.59;1731701;80;21196;-42
2021/01/14 02:24:11;;;;;;;18.57;13.18;;;;;;;0.96;62.14;99190.59;1731234;81;21178;-43
2021/01/14 02:26:38;;;;;;;17.65;13.08;;;;;;;0.96;62.19;99194.53;1726181;81;21122;-40
2021/01/14 02:29:06;;;;;;;20.23;13.98;;;;;;;0.97;62.18;99193.59;1700133;82;21646;-41
2021/01/14 02:31:34;;;;;;;17.60;12.90;;;;;;;0.99;62.09;99192.23;1726831;81;21134;-41
2021/01/14 02:34:01;;;;;;;22.75;14.73;;;;;;;0.98;62.04;99190.08;1725100;81;21152;-41
2021/01/14 02:36:29;;;;;;;22.70;15.05;;;;;;;1.01;61.96;99187.33;1730149;81;21473;-41
2021/01/14 02:38:57;;;;;;;18.48;12.88;;;;;;;1.02;61.88;99179.83;1723652;81;21158;-41
2021/01/14 02:41:24;;;;;;;19.10;13.78;;;;;;;1.06;61.87;99174.02;1729994;81;21561;-41
2021/01/14 02:43:52;;;;;;;19.07;13.35;;;;;;;1.08;61.84;99171.72;1722648;81;21174;-41
2021/01/14 02:46:20;;;;;;;16.27;11.97;;;;;;;1.12;61.65;99176.84;1728024;81;21162;-42
2021/01/14 02:49:09;;;;;;;18.95;13.38;;;;;;;1.14;61.65;99177.18;1723643;81;21145;-40
2021/01/14 02:51:47;;;;;;;18.45;12.47;;;;;;;1.14;61.73;99167.98;1725273;81;21114;-41
2021/01/14 02:54:15;;;;;;;19.75;13.10;;;;;;;1.16;61.83;99166.59;1724624;81;21141;-44
2021/01/14 02:56:42;;;;;;;18.17;13.05;;;;;;;1.18;61.68;99166.08;1697272;81;21150;-43
2021/01/14 02:59:10;;;;;;;19.25;14.07;;;;;;;1.16;61.64;99165.28;1698755;82;21540;-42
2021/01/14 03:01:38;;;;;;;17.50;12.90;;;;;;;1.15;61.73;99170.15;1725831;81;21657;-41
2021/01/14 03:04:05;;;;;;;19.80;13.93;;;;;;;1.12;61.88;99180.32;1732890;81;21161;-42
2021/01/14 03:06:33;;;;;;;17.12;12.90;;;;;;;1.11;61.98;99176.00;1730280;81;21138;-42
2021/01/14 03:09:02;;;;;;;17.87;13.58;;;;;;;1.12;62.03;99179.47;1727724;81;21133;-42
2021/01/14 03:11:31;;;;;;;18.80;12.90;;;;;;;1.12;62.10;99173.75;1727667;81;21138;-42
2021/01/14 03:13:59;;;;;;;20.35;14.28;;;;;;;1.10;62.22;99176.05;1730008;81;21146;-43
2021/01/14 03:16:26;;;;;;;19.57;13.05;;;;;;;1.11;62.34;99172.05;1728658;81;21147;-44
2021/01/14 03:18:54;;;;;;;17.12;13.38;;;;;;;1.13;62.28;99169.35;1731192;81;21162;-42
2021/01/14 03:21:22;;;;;;;20.82;15.08;;;;;;;1.14;62.14;99168.45;1725104;81;21134;-41
2021/01/14 03:23:50;;;;;;;22.48;16.23;;;;;;;1.13;61.96;99160.16;1723381;81;21170;-43
2021/01/14 03:26:18;;;;;;;18.70;14.58;;;;;;;1.12;61.98;99165.88;1688496;83;21173;-40
2021/01/14 03:28:46;;;;;;;21.23;13.83;;;;;;;1.10;62.15;99170.80;1735464;80;21149;-42
2021/01/14 03:31:14;;;;;;;19.82;14.50;;;;;;;1.12;62.27;99168.50;1736251;80;21126;-42
2021/01/14 03:33:43;;;;;;;20.72;14.58;;;;;;;1.12;62.39;99173.75;1737963;81;21157;-42
2021/01/14 03:36:17;;;;;;;24.90;15.58;;;;;;;1.11;62.44;99176.43;1737572;81;21661;-43
2021/01/14 03:38:45;;;;;;;25.37;17.35;;;;;;;1.09;62.45;99179.14;1739349;81;21169;-41
2021/01/14 03:41:16;;;;;;;26.52;16.15;;;;;;;1.07;62.51;99184.44;1737355;80;21169;-41
2021/01/14 03:43:43;;;;;;;21.45;14.55;;;;;;;1.06;62.59;99185.37;1736290;81;21149;-41
2021/01/14 03:46:16;;;;;;;20.88;14.65;;;;;;;1.09;62.75;99192.27;1738042;81;21146;-39
2021/01/14 03:48:45;;;;;;;20.82;14.80;;;;;;;1.12;62.86;99192.14;1739389;80;21170;-43
2021/01/14 03:51:20;;;;;;;20.20;15.25;;;;;;;1.13;62.95;99185.11;1737407;80;21122;-42
2021/01/14 03:53:49;;;;;;;21.25;14.87;;;;;;;1.14;62.98;99189.46;1737967;81;21600;-44
2021/01/14 03:56:17;;;;;;;20.75;15.58;;;;;;;1.15;62.99;99189.84;1740066;80;21138;-44
2021/01/14 03:58:44;;;;;;;22.75;15.58;;;;;;;1.17;63.00;99190.64;1681394;83;21326;-42
2021/01/14 04:01:13;;;;;;;24.65;17.62;;;;;;;1.19;62.95;99190.98;1740574;80;21146;-42
2021/01/14 04:03:41;;;;;;;23.90;16.87;;;;;;;1.19;62.97;99185.73;1736979;81;21150;-45
2021/01/14 04:06:12;;;;;;;22.17;15.53;;;;;;;1.19;62.95;99182.25;1738200;80;21169;-42
2021/01/14 04:08:40;;;;;;;22.95;16.30;;;;;;;1.19;62.92;99180.94;1740450;80;21125;-42
2021/01/14 04:11:11;;;;;;;22.58;15.68;;;;;;;1.20;62.94;99186.58;1733630;80;21138;-42
2021/01/14 04:13:41;;;;;;;24.12;18.15;;;;;;;1.18;62.95;99182.69;1736322;81;21118;-44
2021/01/14 04:16:12;;;;;;;21.48;15.72;;;;;;;1.17;62.99;99187.55;1738415;81;21169;-43
2021/01/14 04:18:41;;;;;;;24.00;16.45;;;;;;;1.18;63.04;99182.69;1737024;81;21166;-42
2021/01/14 04:21:08;;;;;;;20.05;14.83;;;;;;;1.19;63.03;99171.75;1738441;80;21145;-43
2021/01/14 04:23:37;;;;;;;19.25;14.73;;;;;;;1.22;63.12;99171.15;1731790;81;21199;-42
2021/01/14 04:26:06;;;;;;;21.77;15.20;;;;;;;1.22;63.08;99175.09;1733194;80;21146;-43
2021/01/14 04:28:33;;;;;;;22.15;15.83;;;;;;;1.25;63.04;99176.73;1739407;80;21147;-42
2021/01/14 04:31:01;;;;;;;23.60;15.83;;;;;;;1.25;63.03;99174.11;1728104;80;21142;-42
2021/01/14 04:33:28;;;;;;;23.27;15.53;;;;;;;1.26;63.00;99171.86;1728300;80;21154;-41
2021/01/14 04:35:58;;;;;;;22.30;16.07;;;;;;;1.26;62.95;99182.38;1729616;81;21587;-41
2021/01/14 04:38:27;;;;;;;22.95;17.40;;;;;;;1.26;62.95;99178.00;1732952;81;21142;-41
2021/01/14 04:41:03;;;;;;;24.10;17.23;;;;;;;1.28;62.97;99184.02;1730809;80;21555;-43
2021/01/14 04:43:32;;;;;;;22.17;16.75;;;;;;;1.31;62.96;99183.06;1728100;80;21578;-43
2021/01/14 04:46:06;;;;;;;25.62;16.93;;;;;;;1.34;62.93;99186.88;1729021;81;21155;-43
2021/01/14 04:48:47;;;;;;;23.27;16.17;;;;;;;1.39;63.00;99184.91;1801997;78;22934;-42
2021/01/14 04:51:19;;;;;;;22.50;15.83;;;;;;;1.34;63.04;99181.62;1775585;80;21154;-42
2021/01/14 04:53:49;;;;;;;22.65;16.48;;;;;;;1.33;62.99;99181.20;1778192;78;21141;-43
2021/01/14 04:56:23;;;;;;;26.52;18.05;;;;;;;1.33;63.03;99181.67;1775985;80;21263;-41
2021/01/14 04:58:49;;;;;;;21.95;15.25;;;;;;;1.32;63.08;99178.20;1764808;80;21126;-43
2021/01/14 05:01:27;;;;;;;22.40;16.27;;;;;;;1.32;63.08;99182.14;1739963;81;21138;-44
2021/01/14 05:03:55;;;;;;;25.08;16.27;;;;;;;1.32;63.05;99170.31;1715537;82;21161;-42
2021/01/14 05:06:24;;;;;;;22.82;15.85;;;;;;;1.31;63.01;99167.31;1719515;82;21148;-43
2021/01/14 05:08:58;;;;;;;19.65;14.93;;;;;;;1.32;62.98;99177.35;1712102;82;21161;-42
2021/01/14 05:11:26;;;;;;;18.70;14.28;;;;;;;1.35;63.01;99181.16;1716101;82;21584;-44
2021/01/14 05:13:54;;;;;;;20.88;15.60;;;;;;;1.38;62.92;99178.39;1680485;82;21153;-43
2021/01/14 05:16:21;;;;;;;20.52;14.55;;;;;;;1.40;62.88;99166.06;1714161;82;21170;-43
2021/01/14 05:18:49;;;;;;;20.32;14.58;;;;;;;1.38;62.81;99170.05;1721881;82;21152;-43
2021/01/14 05:21:16;;;;;;;22.75;16.15;;;;;;;1.39;62.83;99175.72;1725351;82;21136;-41
2021/01/14 05:23:44;;;;;;;21.23;15.70;;;;;;;1.40;62.81;99173.94;1682992;84;21154;-40
2021/01/14 05:26:12;;;;;;;24.87;16.67;;;;;;;1.39;62.72;99174.41;1698013;84;21169;-41
2021/01/14 05:28:39;;;;;;;23.60;17.35;;;;;;;1.36;62.80;99177.16;1701703;84;21868;-42
2021/01/14 05:31:15;;;;;;;20.23;15.18;;;;;;;1.37;62.89;99176.70;1710207;82;21170;-41
2021/01/14 05:33:43;;;;;;;20.95;15.88;;;;;;;1.35;62.99;99179.38;1698489;83;21161;-41
2021/01/14 05:36:12;;;;;;;22.13;15.80;;;;;;;1.36;63.05;99178.48;1697348;84;21625;-42
2021/01/14 05:38:39;;;;;;;21.73;16.37;;;;;;;1.37;63.10;99189.37;1701445;83;21153;-41
2021/01/14 05:41:11;;;;;;;24.70;17.23;;;;;;;1.42;63.05;99196.60;1654072;83;21169;-41
2021/01/14 05:44:00;;;;;;;21.50;15.75;;;;;;;1.44;62.98;99193.92;1701649;82;21636;-44
2021/01/14 05:46:32;;;;;;;21.48;16.15;;;;;;;1.46;62.92;99192.94;1682341;83;21693;-44
2021/01/14 05:49:02;;;;;;;24.10;17.40;;;;;;;1.46;62.91;99191.63;1690236;82;21166;-46
2021/01/14 05:51:31;;;;;;;24.90;16.87;;;;;;;1.46;62.96;99185.06;1685011;83;21157;-45
2021/01/14 05:54:11;;;;;;;24.70;15.98;;;;;;;1.46;63.00;99192.06;1686009;82;21581;-44
2021/01/14 05:56:49;;;;;;;20.85;16.30;;;;;;;1.45;62.98;99193.84;1682516;83;21485;-45
2021/01/14 05:59:18;;;;;;;24.63;16.20;;;;;;;1.45;62.98;99195.63;1721415;81;21449;-43
2021/01/14 06:01:54;;;;;;;25.45;15.55;;;;;;;1.44;63.04;99193.45;1687199;83;21162;-54
2021/01/14 06:04:23;;;;;;;21.25;16.10;;;;;;;1.42;63.07;99188.72;1721173;81;22051;-43
2021/01/14 06:06:52;;;;;;;23.27;16.30;;;;;;;1.41;63.14;99190.09;1688135;84;21187;-43
2021/01/14 06:09:21;;;;;;;25.27;17.57;;;;;;;1.41;63.19;99186.14;1723630;82;21153;-40
2021/01/14 06:11:50;;;;;;;25.02;17.95;;;;;;;1.42;63.25;99187.41;1685333;83;21181;-39
2021/01/14 06:14:30;;;;;;;25.12;16.90;;;;;;;1.44;63.30;99188.67;1719296;82;21165;-40
2021/01/14 06:17:02;;;;;;;21.73;16.77;;;;;;;1.45;63.31;99189.90;1691877;84;21155;-41
2021/01/14 06:19:29;;;;;;;23.52;17.55;;;;;;;1.47;63.25;99191.16;1678293;83;21174;-42
2021/01/14 06:21:57;;;;;;;27.50;17.15;;;;;;;1.46;63.28;99190.31;1684599;83;21193;-42
2021/01/14 06:24:27;;;;;;;23.30;17.15;;;;;;;1.46;63.30;99190.31;1680782;83;21188;-40
2021/01/14 06:27:10;;;;;;;23.35;16.70;;;;;;;1.49;63.27;99184.08;1687607;83;21162;-40
2021/01/14 06:29:40;;;;;;;22.27;16.10;;;;;;;1.49;63.26;99194.59;1684015;83;21169;-41
2021/01/14 06:32:15;;;;;;;25.43;18.25;;;;;;;1.47;63.29;99193.33;1718380;82;21161;-41
2021/01/14 06:34:49;;;;;;;23.22;16.95;;;;;;;1.45;63.33;99193.84;1724767;81;21154;-40
2021/01/14 06:37:22;;;;;;;26.35;18.30;;;;;;;1.44;63.37;99193.45;1683487;84;21646;-43
2021/01/14 06:39:54;;;;;;;22.22;16.32;;;;;;;1.45;63.40;99197.78;1722952;81;21276;-43
2021/01/14 06:42:27;;;;;;;23.22;16.90;;;;;;;1.46;63.42;99192.94;1719726;81;21155;-43
2021/01/14 06:48:04;;;;;;;24.12;17.52;;;;;;;1.54;63.48;99184.73;1789429;78;22958;-46
2021/01/14 06:50:31;;;;;;;21.10;16.57;;;;;;;1.50;63.51;99185.30;1721560;81;21183;-40
2021/01/14 06:53:10;;;;;;;25.05;17.40;;;;;;;1.50;63.54;99189.25;1703203;82;21161;-39
2021/01/14 06:55:38;;;;;;;26.42;17.80;;;;;;;1.50;63.62;99185.77;1706655;82;21180;-41
2021/01/14 06:58:14;;;;;;;21.82;16.23;;;;;;;1.51;63.66;99190.09;1708938;82;21743;-40
2021/01/14 07:00:48;;;;;;;22.32;16.27;;;;;;;1.53;63.57;99191.36;1704313;82;21225;-41
2021/01/14 07:03:20;;;;;;;23.92;16.07;;;;;;;1.55;63.62;99201.36;1699864;81;21188;-42
2021/01/14 07:06:00;;;;;;;23.62;17.20;;;;;;;1.57;63.71;99198.20;1714909;82;21716;-41
2021/01/14 07:08:37;;;;;;;23.12;15.85;;;;;;;1.59;63.72;99201.16;1725438;81;21295;-39
2021/01/14 07:11:16;;;;;;;22.40;17.15;;;;;;;1.61;63.72;99201.08;1748761;81;21306;-40
2021/01/14 07:13:49;;;;;;;19.67;14.78;;;;;;;1.61;63.74;99210.28;1745315;81;21644;-39
2021/01/14 07:16:20;;;;;;;19.90;14.50;;;;;;;1.57;63.79;99213.51;1742065;81;21180;-40
2021/01/14 07:18:48;;;;;;;19.48;15.48;;;;;;;1.58;63.82;99208.64;1708339;83;22677;-39
2021/01/14 07:21:37;;;;;;;25.80;16.73;;;;;;;1.56;63.93;99208.30;1717964;81;21344;-40
2021/01/14 07:24:22;;;;;;;19.07;14.05;;;;;;;1.56;64.06;99212.25;1708768;82;21181;-40
2021/01/14 07:26:54;;;;;;;20.30;15.28;;;;;;;1.55;64.12;99218.44;1675196;83;21138;-40
2021/01/14 07:29:24;;;;;;;20.72;16.02;;;;;;;1.54;64.13;99219.33;1704386;82;21430;-41
2021/01/14 07:31:55;;;;;;;23.90;16.70;;;;;;;1.56;64.26;99214.88;1690196;83;21166;-41
2021/01/14 07:34:44;;;;;;;21.97;15.53;;;;;;;1.56;64.26;99214.88;1692908;82;21336;-40
2021/01/14 07:37:14;;;;;;;27.30;17.95;;;;;;;1.55;64.30;99216.66;1691392;82;21139;-44
2021/01/14 07:39:58;;;;;;;27.20;17.62;;;;;;;1.56;64.40;99216.19;1709694;81;21180;-42
2021/01/14 07:42:33;;;;;;;26.55;18.92;;;;;;;1.57;64.47;99216.60;1711196;82;21583;-43
2021/01/14 07:45:06;;;;;;;26.37;18.62;;;;;;;1.57;64.44;99217.45;1717764;81;21165;-44
2021/01/14 07:47:38;;;;;;;27.10;17.82;;;;;;;1.60;64.57;99222.57;1714673;82;21197;-44
2021/01/14 07:50:28;;;;;;;26.07;18.65;;;;;;;1.59;64.62;99218.69;1710173;81;21157;-46
2021/01/14 07:52:57;;;;;;;29.37;19.80;;;;;;;1.57;64.76;99208.72;1699693;83;21986;-42
2021/01/14 07:55:32;;;;;;;28.70;19.82;;;;;;;1.59;64.92;99217.37;1702091;82;21172;-43
2021/01/14 07:58:20;;;;;;;31.65;19.48;;;;;;;1.58;65.13;99216.52;1729115;80;21208;-41
2021/01/14 08:01:06;;;;;;;30.97;19.25;;;;;;;1.59;65.26;99222.19;1697857;82;21171;-42
2021/01/14 08:03:37;;;;;;;29.60;20.35;;;;;;;1.62;65.46;99229.09;1711111;81;21310;-42
2021/01/14 08:06:34;;;;;;;36.98;22.13;;;;;;;1.64;65.63;99221.54;1712645;82;21148;-41
2021/01/14 08:09:09;;;;;;;34.00;21.23;;;;;;;1.64;65.77;99221.54;1674706;83;21160;-43
2021/01/14 08:11:51;;;;;;;35.95;21.40;;;;;;;1.62;65.88;99227.31;1671044;83;21194;-44
2021/01/14 08:14:21;;;;;;;32.25;20.75;;;;;;;1.61;65.98;99224.27;1671278;83;21201;-43
2021/01/14 08:17:26;;;;;;;33.35;21.55;;;;;;;1.62;66.06;99219.89;1801608;78;23274;-47
2021/01/14 08:19:55;;;;;;;33.65;21.57;;;;;;;1.60;66.22;99225.67;1762429;79;21176;-44
2021/01/14 08:22:24;;;;;;;37.73;24.50;;;;;;;1.60;66.19;99226.98;1780223;79;21278;-43
2021/01/14 08:24:58;;;;;;;37.58;22.90;;;;;;;1.62;66.34;99226.00;1775890;79;22145;-42
2021/01/14 08:27:35;;;;;;;36.15;22.50;;;;;;;1.65;66.32;99227.17;1744776;81;21157;-41
2021/01/14 08:30:14;;;;;;;31.33;19.73;;;;;;;1.67;66.37;99231.07;1720269;81;21177;-41
2021/01/14 08:32:48;;;;;;;31.97;21.30;;;;;;;1.68;66.42;99231.45;1682122;82;80161;-42
2021/01/14 08:35:27;;;;;;;36.53;22.60;;;;;;;1.69;66.48;99237.97;1687622;83;21307;-40
2021/01/14 08:38:15;;;;;;;38.33;23.60;;;;;;;1.69;66.50;99230.09;1662687;84;21171;-40
2021/01/14 08:40:43;;;;;;;36.77;23.40;;;;;;;1.68;66.48;99229.67;1650853;85;21238;-43
2021/01/14 08:43:15;;;;;;;40.40;24.32;;;;;;;1.69;66.44;99234.49;1660671;85;21203;-44
2021/01/14 08:45:50;;;;;;;32.95;22.60;;;;;;;1.68;66.49;99236.24;1645243;85;21163;-44
2021/01/14 08:48:28;;;;;;;33.23;22.00;;;;;;;1.65;66.56;99235.53;1641404;86;21635;-44
2021/01/14 08:51:02;;;;;;;34.75;22.48;;;;;;;1.63;66.70;99230.33;1638790;85;21157;-41
2021/01/14 08:53:36;;;;;;;33.90;23.05;;;;;;;1.61;66.75;99224.27;1629401;86;21184;-43
2021/01/14 08:56:08;;;;;;;35.90;24.20;;;;;;;1.63;66.86;99228.16;1696813;83;21189;-41
2021/01/14 08:58:47;;;;;;;38.23;23.00;;;;;;;1.66;67.00;99222.77;1698127;83;21866;-42
2021/01/14 09:01:22;;;;;;;35.08;22.98;;;;;;;1.69;67.02;99226.14;1663292;84;21740;-41
2021/01/14 09:03:52;;;;;;;37.53;23.80;;;;;;;1.73;67.03;99224.23;1660770;84;21201;-43
2021/01/14 09:06:32;;;;;;;36.98;22.87;;;;;;;1.73;67.12;99223.77;1638546;85;21164;-42
2021/01/14 09:11:37;;;;;;;48.25;31.42;;;;;;;1.79;67.11;99209.53;1782534;78;28291;-46
2021/01/14 09:14:16;;;;;;;42.60;26.50;;;;;;;1.77;67.13;99219.25;1775617;79;21142;-41
2021/01/14 09:16:45;;;;;;;38.20;23.12;;;;;;;1.88;66.92;99210.89;1775645;79;21409;-44
2021/01/14 09:19:18;;;;;;;36.90;22.37;;;;;;;1.88;66.86;99211.74;1773003;79;21132;-43
2021/01/14 09:21:47;;;;;;;34.90;22.27;;;;;;;1.86;66.87;99212.73;1773091;79;21654;-43
2021/01/14 09:24:16;;;;;;;41.00;24.82;;;;;;;1.88;66.83;99218.31;1761257;80;21195;-44
2021/01/14 09:26:46;;;;;;;33.65;22.15;;;;;;;1.89;66.87;99207.33;1742516;81;21158;-43
2021/01/14 09:29:15;;;;;;;37.45;25.00;;;;;;;1.86;66.85;99212.73;1720083;81;21157;-44
2021/01/14 09:31:43;;;;;;;36.00;21.97;;;;;;;1.84;66.89;99214.56;1681691;83;21653;-42
2021/01/14 09:34:10;;;;;;;43.02;23.52;;;;;;;1.85;66.94;99213.66;1687251;83;21151;-41
2021/01/14 09:36:39;;;;;;;42.00;24.00;;;;;;;1.84;67.00;99215.44;1708197;82;21158;-42
2021/01/14 09:39:07;;;;;;;39.08;25.00;;;;;;;1.81;67.05;99218.18;1692986;82;21435;-42
2021/01/14 09:41:37;;;;;;;43.92;25.97;;;;;;;1.83;67.11;99223.38;1680315;84;21193;-42
2021/01/14 09:44:10;;;;;;;38.53;25.48;;;;;;;1.84;67.13;99214.13;1682168;84;21157;-41
2021/01/14 09:46:41;;;;;;;42.93;25.17;;;;;;;1.87;67.18;99221.03;1715374;82;21744;-44
2021/01/14 09:49:11;;;;;;;40.98;24.27;;;;;;;1.86;67.25;99212.27;1706367;82;21170;-44
2021/01/14 09:51:40;;;;;;;41.88;22.93;;;;;;;1.85;67.31;99214.98;1687564;83;21147;-42
2021/01/14 09:54:08;;;;;;;49.38;24.67;;;;;;;1.83;67.39;99220.28;1684105;84;21164;-45
2021/01/14 09:56:40;;;;;;;40.20;24.65;;;;;;;1.82;67.43;99214.64;1683227;83;21316;-41
2021/01/14 09:59:22;;;;;;;42.88;25.55;;;;;;;1.83;67.45;99212.41;1684246;83;22056;-41
2021/01/14 10:01:53;;;;;;;40.70;24.52;;;;;;;1.84;67.49;99211.94;1685682;83;21335;-42
2021/01/14 10:04:23;;;;;;;;;;;;;;;1.81;67.65;99207.66;1696510;84;21657;-45
2021/01/14 10:07:04;;;;;;;30.92;20.68;;;;;;;1.82;67.70;99210.70;1691112;83;20182;-45
2021/01/14 10:09:35;;;;;;;42.20;23.52;;;;;;;1.85;67.79;99205.77;1690304;83;21180;-44
2021/01/14 10:12:04;;;;;;;34.50;21.45;;;;;;;1.85;67.94;99198.73;1674812;84;21212;-44
2021/01/14 10:14:32;;;;;;;38.83;22.37;;;;;;;1.87;68.02;99199.53;1672701;84;21183;-45
2021/01/14 10:17:15;;;;;;;44.18;24.98;;;;;;;1.89;68.06;99202.07;1676515;83;21132;-42
2021/01/14 10:19:49;;;;;;;37.33;23.10;;;;;;;1.90;68.09;99203.80;1665837;84;21181;-42
2021/01/14 10:22:19;;;;;;;35.20;22.17;;;;;;;1.92;68.08;99208.07;1682862;84;21293;-41
2021/01/14 10:24:46;;;;;;;37.90;24.27;;;;;;;1.93;68.06;99207.61;1682030;84;21218;-39
2021/01/14 10:27:18;;;;;;;42.65;26.27;;;;;;;1.91;68.01;99202.40;1680540;84;21170;-42
2021/01/14 10:29:46;;;;;;;37.23;23.70;;;;;;;1.91;68.03;99202.87;1667265;84;21159;-41
2021/01/14 10:32:17;;;;;;;37.73;25.27;;;;;;;1.92;68.04;99197.55;1723900;81;21547;-43
2021/01/14 10:34:53;;;;;;;37.93;24.47;;;;;;;1.93;67.99;99193.99;1727600;81;21111;-45
2021/01/14 10:37:27;;;;;;;32.93;21.93;;;;;;;1.94;67.98;99196.16;1729056;82;21127;-44
2021/01/14 10:39:57;;;;;;;39.38;23.02;;;;;;;1.94;68.01;99182.57;1725509;81;21134;-43
2021/01/14 10:42:37;;;;;;;42.85;24.30;;;;;;;1.97;67.99;99178.95;1728382;81;21122;-44
2021/01/14 10:45:12;;;;;;;33.88;22.02;;;;;;;1.99;68.03;99184.13;1727234;81;21262;-42
2021/01/14 10:47:41;;;;;;;37.85;23.10;;;;;;;2.01;68.06;99175.72;1726468;81;21142;-44
2021/01/14 10:50:23;;;;;;;38.30;21.20;;;;;;;2.06;67.99;99179.84;1728415;81;21685;-47
2021/01/14 10:53:03;;;;;;;37.55;22.20;;;;;;;2.07;67.83;99175.00;1724484;81;21610;-44
2021/01/14 10:55:32;;;;;;;39.05;24.85;;;;;;;2.07;67.77;99179.41;1669919;84;21154;-43
2021/01/14 10:58:04;;;;;;;34.60;23.05;;;;;;;2.03;67.84;99178.67;1662463;84;21142;-43
2021/01/14 11:00:39;;;;;;;36.03;22.60;;;;;;;1.97;67.77;99172.38;1720755;81;21153;-44
2021/01/14 11:05:58;;;;;;;37.70;24.07;;;;;;;1.94;68.05;99169.42;1798248;78;22788;-43
2021/01/14 11:08:42;;;;;;;37.55;23.47;;;;;;;1.91;68.13;99170.84;1774868;79;21648;-42
2021/01/14 11:11:16;;;;;;;37.70;23.57;;;;;;;1.92;68.27;99170.41;1777324;79;21303;-44
2021/01/14 11:13:49;;;;;;;34.45;22.22;;;;;;;1.94;68.43;99176.00;1784267;80;21143;-44
2021/01/14 11:16:25;;;;;;;36.05;22.22;;;;;;;1.97;68.49;99171.53;1780809;80;21302;-43
2021/01/14 11:18:58;;;;;;;33.73;22.67;;;;;;;2.02;68.55;99171.72;1777295;79;21157;-42
2021/01/14 11:21:31;;;;;;;48.05;30.15;;;;;;;2.06;68.58;99168.01;1771356;79;21137;-42
2021/01/14 11:24:01;;;;;;;44.38;27.62;;;;;;;2.08;68.62;99170.11;1775343;79;21283;-42
2021/01/14 11:26:28;;;;;;;35.50;23.22;;;;;;;2.07;68.61;99161.84;1774792;78;22060;-42
2021/01/14 11:28:56;;;;;;;37.17;23.80;;;;;;;2.08;68.62;99170.58;1780554;78;21113;-43
2021/01/14 11:31:25;;;;;;;35.33;22.30;;;;;;;2.10;68.61;99168.28;1778247;79;21154;-43
2021/01/14 11:33:54;;;;;;;34.55;20.88;;;;;;;2.10;68.61;99162.17;1779981;78;21149;-42
2021/01/14 11:36:22;;;;;;;34.13;21.60;;;;;;;2.12;68.63;99158.55;1776388;78;21170;-42
2021/01/14 11:38:50;;;;;;;32.28;21.87;;;;;;;2.13;68.63;99154.14;1776518;79;21139;-44
2021/01/14 11:41:19;;;;;;;36.35;22.75;;;;;;;2.13;68.66;99151.03;1780190;78;21272;-43
2021/01/14 11:43:47;;;;;;;34.95;22.65;;;;;;;2.16;68.66;99152.67;1782929;78;21283;-41
2021/01/14 11:46:22;;;;;;;33.20;20.43;;;;;;;2.14;68.67;99148.82;1777757;79;21609;-42
2021/01/14 11:48:50;;;;;;;34.65;22.82;;;;;;;2.13;68.70;99146.24;1781162;79;21152;-40
2021/01/14 11:51:18;;;;;;;35.52;21.80;;;;;;;2.15;68.71;99154.92;1777074;78;21133;-42
2021/01/14 11:53:45;;;;;;;33.65;22.65;;;;;;;2.18;68.64;99151.30;1779583;78;21581;-44
2021/01/14 11:56:15;;;;;;;38.85;24.15;;;;;;;2.19;68.70;99151.68;1777092;79;21581;-43